createdAt,value
2023-03-22T00:03:47.294Z,31.08
2023-03-22T00:07:47.116Z,31.05
2023-03-22T00:11:47.175Z,31.02
2023-03-22T00:15:47.293Z,31.09
2023-03-22T00:19:47.289Z,31.03
2023-03-22T00:23:47.305Z,31.03
2023-03-22T00:27:47.393Z,31.00
2023-03-22T00:31:47.431Z,30.94
2023-03-22T00:35:47.504Z,30.96
2023-03-22T00:39:47.473Z,30.99
2023-03-22T00:43:47.582Z,30.96
2023-03-22T00:47:47.626Z,30.94
2023-03-22T00:51:48.309Z,30.96
2023-03-22T00:55:47.663Z,30.85
2023-03-22T00:59:47.709Z,30.93
2023-03-22T01:03:47.871Z,30.88
2023-03-22T01:07:47.816Z,30.87
2023-03-22T01:11:47.889Z,30.87
2023-03-22T01:15:47.989Z,30.81
2023-03-22T01:19:47.946Z,30.84
2023-03-22T01:23:48.057Z,30.82
2023-03-22T01:27:48.290Z,30.79
2023-03-22T01:31:51.282Z,30.78
2023-03-22T01:35:48.116Z,30.81
2023-03-22T01:39:48.053Z,30.78
2023-03-22T01:43:48.025Z,30.76
2023-03-22T01:47:48.024Z,30.70
2023-03-22T01:51:47.970Z,30.75
2023-03-22T01:55:48.323Z,30.72
2023-03-22T01:59:47.880Z,30.69
2023-03-22T02:03:47.859Z,30.67
2023-03-22T02:07:47.910Z,30.64
2023-03-22T02:11:47.789Z,30.60
2023-03-22T02:15:48.345Z,30.66
2023-03-22T02:19:47.677Z,30.64
2023-03-22T02:23:47.672Z,30.61
2023-03-22T02:27:47.625Z,30.64
2023-03-22T02:31:47.592Z,30.64
2023-03-22T02:35:47.888Z,30.62
2023-03-22T02:39:48.319Z,30.64
2023-03-22T02:43:48.328Z,30.60
2023-03-22T02:47:47.431Z,30.62
2023-03-22T02:51:47.411Z,30.54
2023-03-22T02:55:47.386Z,30.59
2023-03-22T02:59:47.351Z,30.59
2023-03-22T03:03:47.269Z,30.55
2023-03-22T03:07:47.295Z,30.59
2023-03-22T03:11:47.310Z,30.51
2023-03-22T03:15:47.181Z,30.53
2023-03-22T03:19:47.260Z,30.50
2023-03-22T03:23:47.244Z,30.58
2023-03-22T03:27:47.299Z,30.49
2023-03-22T03:31:47.495Z,30.49
2023-03-22T03:35:47.436Z,30.49
2023-03-22T03:39:47.428Z,30.53
2023-03-22T03:43:47.460Z,30.50
2023-03-22T03:47:47.592Z,30.49
2023-03-22T03:51:47.595Z,30.49
2023-03-22T03:55:47.682Z,30.41
2023-03-22T03:59:47.766Z,30.46
2023-03-22T04:03:47.821Z,30.46
2023-03-22T04:07:47.907Z,30.41
2023-03-22T04:11:48.015Z,30.46
2023-03-22T04:15:48.054Z,30.44
2023-03-22T04:19:48.131Z,30.42
2023-03-22T04:23:48.271Z,30.43
2023-03-22T04:27:48.266Z,30.42
2023-03-22T04:31:48.299Z,30.37
2023-03-22T04:35:48.453Z,30.35
2023-03-22T04:39:50.408Z,30.40
2023-03-22T04:43:48.604Z,30.38
2023-03-22T04:47:48.736Z,30.41
2023-03-22T04:51:48.803Z,30.36
2023-03-22T04:55:48.844Z,30.38
2023-03-22T04:59:48.982Z,30.38
2023-03-22T05:03:49.113Z,30.35
2023-03-22T05:07:49.147Z,30.38
2023-03-22T05:11:49.248Z,30.37
2023-03-22T05:15:49.346Z,30.32
2023-03-22T05:19:49.490Z,30.29
2023-03-22T05:23:51.469Z,30.37
2023-03-22T05:27:49.721Z,30.32
2023-03-22T05:31:49.856Z,30.05
2023-03-22T05:35:49.908Z,29.84
2023-03-22T05:39:49.856Z,29.71
2023-03-22T05:43:49.909Z,29.55
2023-03-22T05:47:50.128Z,29.50
2023-03-22T05:51:49.870Z,29.34
2023-03-22T05:55:52.392Z,29.33
2023-03-22T05:59:49.783Z,29.22
2023-03-22T06:03:50.459Z,29.25
2023-03-22T06:07:49.955Z,29.12
2023-03-22T06:11:49.783Z,29.00
2023-03-22T06:15:51.438Z,29.10
2023-03-22T06:19:51.993Z,29.08
2023-03-22T06:23:49.898Z,29.16
2023-03-22T06:27:49.714Z,28.99
2023-03-22T06:31:50.382Z,28.99
2023-03-22T06:35:50.117Z,29.11
2023-03-22T06:39:50.075Z,30.22
2023-03-22T06:43:49.499Z,31.62
2023-03-22T06:47:49.503Z,31.81
2023-03-22T06:51:50.513Z,33.18
2023-03-22T06:55:53.702Z,32.62
2023-03-22T06:59:50.628Z,32.50
2023-03-22T07:03:49.373Z,32.39
2023-03-22T07:12:10.047Z,32.11
2023-03-22T07:16:09.687Z,31.87
2023-03-22T07:24:36.075Z,31.32
2023-03-22T07:45:41.314Z,31.14
2023-03-22T07:58:20.413Z,30.63
2023-03-22T08:06:37.431Z,30.64
2023-03-22T08:10:39.694Z,30.54
2023-03-22T08:19:06.897Z,30.72
2023-03-22T08:23:01.467Z,30.75
2023-03-22T08:26:56.022Z,30.76
2023-03-22T08:48:18.653Z,31.27
2023-03-22T08:52:14.445Z,29.96
2023-03-22T09:00:42.260Z,29.82
2023-03-22T09:04:42.141Z,29.83
2023-03-22T09:12:49.787Z,29.84
2023-03-22T09:16:48.821Z,29.97
2023-03-22T09:25:14.504Z,30.04
2023-03-22T09:37:59.837Z,30.11
2023-03-22T09:59:17.869Z,32.34
2023-03-22T10:03:18.107Z,32.68
2023-03-22T10:07:25.659Z,32.23
2023-03-22T10:11:22.765Z,32.53
2023-03-22T10:15:18.354Z,32.66
2023-03-22T10:19:18.342Z,32.23
2023-03-22T10:27:38.172Z,32.62
2023-03-22T10:31:37.155Z,33.12
2023-03-22T10:39:56.179Z,31.59
2023-03-22T10:52:34.288Z,31.53
2023-03-22T11:01:27.320Z,31.35
2023-03-22T11:05:39.531Z,31.32
2023-03-22T11:14:02.499Z,31.97
2023-03-22T11:18:07.341Z,31.90
2023-03-22T11:22:12.133Z,31.86
2023-03-22T11:26:02.209Z,31.72
2023-03-22T11:30:01.959Z,31.14
2023-03-22T11:34:02.336Z,30.55
2023-03-22T11:38:01.237Z,30.36
2023-03-22T11:42:01.279Z,30.17
2023-03-22T11:46:01.208Z,30.16
2023-03-22T11:50:01.700Z,30.24
2023-03-22T11:54:01.158Z,30.19
2023-03-22T11:58:01.030Z,30.17
2023-03-22T12:02:00.985Z,30.16
2023-03-22T12:06:01.175Z,30.22
2023-03-22T12:10:01.425Z,30.16
2023-03-22T12:14:01.523Z,30.12
2023-03-22T12:18:01.876Z,30.10
2023-03-22T12:22:01.989Z,30.15
2023-03-22T12:26:02.087Z,30.22
2023-03-22T12:30:02.259Z,30.21
2023-03-22T12:34:02.674Z,30.24
2023-03-22T12:38:02.399Z,30.21
2023-03-22T12:42:02.574Z,30.24
2023-03-22T12:46:02.700Z,30.23
2023-03-22T12:50:03.191Z,30.30
2023-03-22T12:54:02.898Z,30.25
2023-03-22T12:58:03.032Z,30.25
2023-03-22T13:02:03.196Z,30.33
2023-03-22T13:06:03.176Z,30.28
2023-03-22T13:10:03.496Z,30.26
2023-03-22T13:14:03.355Z,30.24
2023-03-22T13:18:03.615Z,30.26
2023-03-22T13:22:03.547Z,30.20
2023-03-22T13:26:03.661Z,30.26
2023-03-22T13:30:03.711Z,30.12
2023-03-22T13:34:03.908Z,30.10
2023-03-22T13:38:03.920Z,30.06
2023-03-22T13:42:04.063Z,30.00
2023-03-22T13:46:04.219Z,30.11
2023-03-22T13:50:06.849Z,30.09
2023-03-22T13:54:04.267Z,30.07
2023-03-22T13:58:05.199Z,30.06
2023-03-22T14:02:04.236Z,30.06
2023-03-22T14:06:04.131Z,30.03
2023-03-22T14:10:04.130Z,30.02
2023-03-22T14:14:04.106Z,30.05
2023-03-22T14:18:07.374Z,30.05
2023-03-22T14:47:05.889Z,29.81
2023-03-22T14:51:05.858Z,29.78
2023-03-22T14:55:05.825Z,29.72
2023-03-22T14:59:05.774Z,29.64
2023-03-22T15:03:07.536Z,29.72
2023-03-22T15:07:05.691Z,29.76
2023-03-22T15:11:05.759Z,29.76
2023-03-22T15:15:05.832Z,29.74
2023-03-22T15:19:06.022Z,29.75
2023-03-22T15:23:06.102Z,29.75
2023-03-22T15:27:06.200Z,29.76
2023-03-22T15:31:06.205Z,29.78
2023-03-22T15:35:06.220Z,29.79
2023-03-22T15:39:06.189Z,29.76
2023-03-22T15:43:06.251Z,29.89
2023-03-22T15:47:06.266Z,29.89
2023-03-22T15:51:06.393Z,29.88
2023-03-22T15:55:11.175Z,29.76
2023-03-22T15:59:06.235Z,29.70
2023-03-22T16:03:06.179Z,29.58
2023-03-22T16:07:06.133Z,29.53
2023-03-22T16:11:06.096Z,29.51
2023-03-22T16:15:06.051Z,29.53
2023-03-22T16:19:06.008Z,29.44
2023-03-22T16:23:05.982Z,29.47
2023-03-22T16:27:06.120Z,29.51
2023-03-22T16:31:06.182Z,29.45
2023-03-22T16:35:06.108Z,29.44
2023-03-22T16:39:06.328Z,29.37
2023-03-22T16:43:06.646Z,29.34
2023-03-22T16:47:06.683Z,29.30
2023-03-22T16:51:06.604Z,29.23
2023-03-22T16:55:06.850Z,29.21
2023-03-22T16:59:06.942Z,29.21
2023-03-22T17:03:07.142Z,29.06
2023-03-22T17:07:07.174Z,29.06
2023-03-22T17:11:08.126Z,29.03
2023-03-22T17:15:07.029Z,29.02
2023-03-22T17:19:06.980Z,29.03
2023-03-22T17:23:06.949Z,29.12
2023-03-22T17:27:06.931Z,29.09
2023-03-22T17:31:07.804Z,29.04
2023-03-22T17:35:06.876Z,29.06
2023-03-22T17:39:20.961Z,29.04
2023-03-22T17:43:07.796Z,28.96
2023-03-22T17:47:33.056Z,28.93
2023-03-22T17:51:07.689Z,28.85
2023-03-22T17:55:16.729Z,28.81
2023-03-22T17:59:07.623Z,28.71
2023-03-22T18:03:06.609Z,28.69
2023-03-22T18:07:06.563Z,28.63
2023-03-22T18:11:06.518Z,28.55
2023-03-22T18:15:06.462Z,28.47
2023-03-22T18:19:06.661Z,28.51
2023-03-22T18:23:06.393Z,28.47
2023-03-22T18:27:11.257Z,28.55
2023-03-22T18:31:07.481Z,28.54
2023-03-22T18:35:06.286Z,28.61
2023-03-22T18:39:30.424Z,28.52
2023-03-22T18:43:07.208Z,28.50
2023-03-22T18:47:06.271Z,28.49
2023-03-22T18:51:11.623Z,28.48
2023-03-22T18:55:21.737Z,28.46
2023-03-22T18:59:07.091Z,28.34
2023-03-22T19:07:06.015Z,28.26
2023-03-22T19:11:06.704Z,28.32
2023-03-22T19:19:06.956Z,28.29
2023-03-22T19:23:05.847Z,28.19
2023-03-22T19:31:06.813Z,28.18
2023-03-22T19:35:05.764Z,27.99
2023-03-22T19:39:11.484Z,27.98
2023-03-22T19:43:08.673Z,27.99
2023-03-22T19:47:05.694Z,28.03
2023-03-22T19:51:05.611Z,27.88
2023-03-22T19:55:05.521Z,27.88
2023-03-22T19:59:11.525Z,27.81
2023-03-22T20:03:06.689Z,27.75
2023-03-22T20:07:05.448Z,27.73
2023-03-22T20:11:06.665Z,27.66
2023-03-22T20:15:05.536Z,27.60
2023-03-22T20:19:05.613Z,27.71
2023-03-22T20:23:05.743Z,27.62
2023-03-22T20:27:05.868Z,27.61
2023-03-22T20:31:06.051Z,27.57
2023-03-22T20:35:06.201Z,27.65
2023-03-22T20:39:06.288Z,27.72
2023-03-22T20:43:06.479Z,27.67
2023-03-22T20:47:06.545Z,27.79
2023-03-22T20:51:06.687Z,27.76
2023-03-22T20:55:06.795Z,27.79
2023-03-22T20:59:06.973Z,27.78
2023-03-22T21:03:07.084Z,27.83
2023-03-22T21:07:07.217Z,27.91
2023-03-22T21:11:07.335Z,27.90
2023-03-22T21:15:07.498Z,27.95
2023-03-22T21:19:07.655Z,27.95
2023-03-22T21:23:07.766Z,27.97
2023-03-22T21:27:07.975Z,28.03
2023-03-22T21:31:08.089Z,28.06
2023-03-22T21:35:08.192Z,28.07
2023-03-22T21:39:08.369Z,28.10
2023-03-22T21:43:08.514Z,28.09
2023-03-22T21:47:08.629Z,28.10
2023-03-22T21:51:08.804Z,28.16
2023-03-22T21:55:08.986Z,28.16
2023-03-22T21:59:09.133Z,28.18
2023-03-22T22:03:09.237Z,28.22
2023-03-22T22:07:09.406Z,28.20
2023-03-22T22:11:09.600Z,28.24
2023-03-22T22:15:09.728Z,28.27
2023-03-22T22:19:09.897Z,28.24
2023-03-22T22:23:10.104Z,28.24
2023-03-22T22:27:10.296Z,28.32
2023-03-22T22:31:10.469Z,28.33
2023-03-22T22:35:10.711Z,28.33
2023-03-22T22:39:10.891Z,28.37
2023-03-22T22:43:11.059Z,28.34
2023-03-22T22:47:11.239Z,28.40
2023-03-22T22:51:11.522Z,28.37
2023-03-22T22:55:11.563Z,28.41
2023-03-22T22:59:11.816Z,28.47
2023-03-22T23:03:12.044Z,28.50
2023-03-22T23:07:11.954Z,28.48
2023-03-22T23:11:11.921Z,28.51
2023-03-22T23:15:21.433Z,28.48
2023-03-22T23:19:15.745Z,28.48
2023-03-22T23:23:11.811Z,28.52
2023-03-22T23:27:11.776Z,28.57
2023-03-22T23:31:11.732Z,28.56
2023-03-22T23:35:11.825Z,28.59
2023-03-22T23:39:11.761Z,28.58
2023-03-22T23:43:11.702Z,28.61
2023-03-22T23:47:12.292Z,28.64
2023-03-22T23:51:12.150Z,28.61
2023-03-22T23:55:12.335Z,28.62
2023-03-22T23:59:12.645Z,28.66
